sensor_id;sensor_type;location;lat;lon;timestamp;P1;durP1;ratioP1;P2;durP2;ratioP2
21927;SDS011;11128;51.096;17.190;2023-11-21T00:03:46;7.78;;;2.75;;
21927;SDS011;11128;51.096;17.190;2023-11-21T00:08:47;8.98;;;2.80;;
21927;SDS011;11128;51.096;17.190;2023-11-21T00:13:49;5.32;;;2.47;;
21927;SDS011;11128;51.096;17.190;2023-11-21T00:18:50;5.03;;;2.42;;
21927;SDS011;11128;51.096;17.190;2023-11-21T00:23:52;3.45;;;2.28;;
21927;SDS011;11128;51.096;17.190;2023-11-21T00:28:53;5.72;;;2.58;;
21927;SDS011;11128;51.096;17.190;2023-11-21T00:33:54;8.27;;;2.75;;
21927;SDS011;11128;51.096;17.190;2023-11-21T00:38:56;4.40;;;2.35;;
21927;SDS011;11128;51.096;17.190;2023-11-21T00:43:57;7.32;;;2.72;;
21927;SDS011;11128;51.096;17.190;2023-11-21T00:49:00;6.43;;;2.42;;
21927;SDS011;11128;51.096;17.190;2023-11-21T00:54:01;5.15;;;1.77;;
21927;SDS011;11128;51.096;17.190;2023-11-21T00:59:03;9.40;;;2.40;;
21927;SDS011;11128;51.096;17.190;2023-11-21T01:04:05;9.15;;;2.33;;
21927;SDS011;11128;51.096;17.190;2023-11-21T01:09:10;4.57;;;2.10;;
21927;SDS011;11128;51.096;17.190;2023-11-21T01:14:11;8.45;;;2.15;;
21927;SDS011;11128;51.096;17.190;2023-11-21T01:19:14;6.53;;;2.35;;
21927;SDS011;11128;51.096;17.190;2023-11-21T01:24:15;5.68;;;2.35;;
21927;SDS011;11128;51.096;17.190;2023-11-21T01:29:16;5.45;;;2.20;;
21927;SDS011;11128;51.096;17.190;2023-11-21T01:34:17;4.80;;;2.13;;
21927;SDS011;11128;51.096;17.190;2023-11-21T01:39:19;7.95;;;2.80;;
21927;SDS011;11128;51.096;17.190;2023-11-21T01:44:24;4.25;;;2.70;;
21927;SDS011;11128;51.096;17.190;2023-11-21T01:49:25;4.50;;;2.30;;
21927;SDS011;11128;51.096;17.190;2023-11-21T01:54:27;5.57;;;2.22;;
21927;SDS011;11128;51.096;17.190;2023-11-21T01:59:36;8.15;;;2.20;;
21927;SDS011;11128;51.096;17.190;2023-11-21T02:04:38;6.20;;;1.75;;
21927;SDS011;11128;51.096;17.190;2023-11-21T02:09:40;4.63;;;2.15;;
21927;SDS011;11128;51.096;17.190;2023-11-21T02:14:43;7.00;;;2.05;;
21927;SDS011;11128;51.096;17.190;2023-11-21T02:19:45;7.07;;;2.30;;
21927;SDS011;11128;51.096;17.190;2023-11-21T02:24:47;5.63;;;2.40;;
21927;SDS011;11128;51.096;17.190;2023-11-21T02:29:50;5.32;;;2.10;;
21927;SDS011;11128;51.096;17.190;2023-11-21T02:34:51;3.97;;;2.50;;
21927;SDS011;11128;51.096;17.190;2023-11-21T02:39:52;6.47;;;2.20;;
21927;SDS011;11128;51.096;17.190;2023-11-21T02:44:54;8.40;;;2.53;;
21927;SDS011;11128;51.096;17.190;2023-11-21T02:49:55;4.68;;;2.25;;
21927;SDS011;11128;51.096;17.190;2023-11-21T02:54:57;5.68;;;2.78;;
21927;SDS011;11128;51.096;17.190;2023-11-21T02:59:58;5.68;;;2.40;;
21927;SDS011;11128;51.096;17.190;2023-11-21T03:05:00;7.15;;;2.83;;
21927;SDS011;11128;51.096;17.190;2023-11-21T03:10:02;7.40;;;3.17;;
21927;SDS011;11128;51.096;17.190;2023-11-21T03:15:05;6.30;;;2.88;;
21927;SDS011;11128;51.096;17.190;2023-11-21T03:20:07;6.63;;;3.10;;
21927;SDS011;11128;51.096;17.190;2023-11-21T03:25:11;7.43;;;3.45;;
21927;SDS011;11128;51.096;17.190;2023-11-21T03:30:13;7.78;;;3.38;;
21927;SDS011;11128;51.096;17.190;2023-11-21T03:35:15;9.30;;;3.67;;
21927;SDS011;11128;51.096;17.190;2023-11-21T03:40:17;7.57;;;3.40;;
21927;SDS011;11128;51.096;17.190;2023-11-21T03:45:18;8.73;;;4.18;;
21927;SDS011;11128;51.096;17.190;2023-11-21T03:50:19;10.98;;;4.53;;
21927;SDS011;11128;51.096;17.190;2023-11-21T03:55:21;5.78;;;3.00;;
21927;SDS011;11128;51.096;17.190;2023-11-21T04:00:24;8.77;;;3.22;;
21927;SDS011;11128;51.096;17.190;2023-11-21T04:05:27;9.25;;;3.60;;
21927;SDS011;11128;51.096;17.190;2023-11-21T04:10:28;7.07;;;3.67;;
21927;SDS011;11128;51.096;17.190;2023-11-21T04:15:30;7.47;;;3.67;;
21927;SDS011;11128;51.096;17.190;2023-11-21T04:20:31;5.68;;;3.05;;
21927;SDS011;11128;51.096;17.190;2023-11-21T04:25:33;7.80;;;3.55;;
21927;SDS011;11128;51.096;17.190;2023-11-21T04:30:34;6.85;;;3.13;;
21927;SDS011;11128;51.096;17.190;2023-11-21T04:35:36;6.05;;;3.28;;
21927;SDS011;11128;51.096;17.190;2023-11-21T04:40:37;8.32;;;3.30;;
21927;SDS011;11128;51.096;17.190;2023-11-21T04:45:38;4.65;;;2.80;;
21927;SDS011;11128;51.096;17.190;2023-11-21T04:50:41;7.20;;;2.65;;
21927;SDS011;11128;51.096;17.190;2023-11-21T04:55:43;4.88;;;2.58;;
21927;SDS011;11128;51.096;17.190;2023-11-21T05:00:44;6.07;;;3.10;;
21927;SDS011;11128;51.096;17.190;2023-11-21T05:05:46;8.05;;;2.72;;
21927;SDS011;11128;51.096;17.190;2023-11-21T05:10:48;4.00;;;2.30;;
21927;SDS011;11128;51.096;17.190;2023-11-21T05:15:50;4.57;;;2.13;;
21927;SDS011;11128;51.096;17.190;2023-11-21T05:20:51;3.80;;;2.33;;
21927;SDS011;11128;51.096;17.190;2023-11-21T05:25:54;5.47;;;2.60;;
21927;SDS011;11128;51.096;17.190;2023-11-21T05:30:57;5.70;;;2.65;;
21927;SDS011;11128;51.096;17.190;2023-11-21T05:35:58;6.65;;;3.28;;
21927;SDS011;11128;51.096;17.190;2023-11-21T05:41:00;8.10;;;3.97;;
21927;SDS011;11128;51.096;17.190;2023-11-21T05:46:01;5.00;;;3.38;;
21927;SDS011;11128;51.096;17.190;2023-11-21T05:51:04;6.70;;;3.45;;
21927;SDS011;11128;51.096;17.190;2023-11-21T05:56:06;8.10;;;3.85;;
21927;SDS011;11128;51.096;17.190;2023-11-21T06:01:08;6.20;;;3.50;;
21927;SDS011;11128;51.096;17.190;2023-11-21T06:06:10;7.75;;;3.47;;
21927;SDS011;11128;51.096;17.190;2023-11-21T06:11:11;5.88;;;3.45;;
21927;SDS011;11128;51.096;17.190;2023-11-21T06:16:12;8.35;;;3.92;;
21927;SDS011;11128;51.096;17.190;2023-11-21T06:21:16;7.40;;;4.10;;
21927;SDS011;11128;51.096;17.190;2023-11-21T06:26:19;9.05;;;3.72;;
21927;SDS011;11128;51.096;17.190;2023-11-21T06:31:21;7.82;;;4.72;;
21927;SDS011;11128;51.096;17.190;2023-11-21T06:36:23;10.30;;;5.25;;
21927;SDS011;11128;51.096;17.190;2023-11-21T06:41:25;10.32;;;4.50;;
21927;SDS011;11128;51.096;17.190;2023-11-21T06:46:26;6.70;;;4.05;;
21927;SDS011;11128;51.096;17.190;2023-11-21T06:51:27;7.53;;;4.40;;
21927;SDS011;11128;51.096;17.190;2023-11-21T06:56:28;11.45;;;5.72;;
21927;SDS011;11128;51.096;17.190;2023-11-21T07:01:31;10.35;;;4.45;;
21927;SDS011;11128;51.096;17.190;2023-11-21T07:06:39;10.82;;;5.70;;
21927;SDS011;11128;51.096;17.190;2023-11-21T07:11:41;9.50;;;5.20;;
21927;SDS011;11128;51.096;17.190;2023-11-21T07:16:44;11.38;;;4.85;;
21927;SDS011;11128;51.096;17.190;2023-11-21T07:21:46;10.32;;;4.97;;
21927;SDS011;11128;51.096;17.190;2023-11-21T07:26:47;7.30;;;4.70;;
21927;SDS011;11128;51.096;17.190;2023-11-21T07:31:49;10.65;;;5.35;;
21927;SDS011;11128;51.096;17.190;2023-11-21T07:36:50;7.60;;;4.50;;
21927;SDS011;11128;51.096;17.190;2023-11-21T07:41:52;12.43;;;5.10;;
21927;SDS011;11128;51.096;17.190;2023-11-21T07:46:53;13.40;;;5.45;;
21927;SDS011;11128;51.096;17.190;2023-11-21T07:51:58;9.25;;;4.55;;
21927;SDS011;11128;51.096;17.190;2023-11-21T07:56:59;12.77;;;4.28;;
21927;SDS011;11128;51.096;17.190;2023-11-21T08:02:01;9.32;;;4.43;;
21927;SDS011;11128;51.096;17.190;2023-11-21T08:07:02;12.63;;;4.40;;
21927;SDS011;11128;51.096;17.190;2023-11-21T08:12:04;9.40;;;4.68;;
21927;SDS011;11128;51.096;17.190;2023-11-21T08:17:06;7.47;;;4.30;;
21927;SDS011;11128;51.096;17.190;2023-11-21T08:22:08;8.60;;;4.18;;
21927;SDS011;11128;51.096;17.190;2023-11-21T08:27:09;7.38;;;4.00;;
21927;SDS011;11128;51.096;17.190;2023-11-21T08:32:11;10.18;;;3.80;;
21927;SDS011;11128;51.096;17.190;2023-11-21T08:37:14;7.50;;;4.15;;
21927;SDS011;11128;51.096;17.190;2023-11-21T08:42:16;10.88;;;4.85;;
21927;SDS011;11128;51.096;17.190;2023-11-21T08:47:18;7.60;;;4.10;;
21927;SDS011;11128;51.096;17.190;2023-11-21T08:52:20;12.32;;;5.07;;
21927;SDS011;11128;51.096;17.190;2023-11-21T08:57:23;9.73;;;3.92;;
21927;SDS011;11128;51.096;17.190;2023-11-21T09:02:27;10.85;;;3.95;;
21927;SDS011;11128;51.096;17.190;2023-11-21T09:07:29;13.57;;;4.80;;
21927;SDS011;11128;51.096;17.190;2023-11-21T09:12:30;8.93;;;4.03;;
21927;SDS011;11128;51.096;17.190;2023-11-21T09:17:33;8.52;;;4.43;;
21927;SDS011;11128;51.096;17.190;2023-11-21T09:22:35;11.10;;;3.65;;
21927;SDS011;11128;51.096;17.190;2023-11-21T09:27:37;7.35;;;4.07;;
21927;SDS011;11128;51.096;17.190;2023-11-21T09:32:38;7.20;;;4.43;;
21927;SDS011;11128;51.096;17.190;2023-11-21T09:37:41;9.15;;;4.28;;
21927;SDS011;11128;51.096;17.190;2023-11-21T09:43:05;12.40;;;4.53;;
21927;SDS011;11128;51.096;17.190;2023-11-21T09:48:18;14.85;;;6.30;;
21927;SDS011;11128;51.096;17.190;2023-11-21T09:53:21;9.57;;;4.75;;
21927;SDS011;11128;51.096;17.190;2023-11-21T09:58:24;9.40;;;5.15;;
21927;SDS011;11128;51.096;17.190;2023-11-21T10:03:27;12.85;;;5.85;;
21927;SDS011;11128;51.096;17.190;2023-11-21T10:08:29;13.90;;;5.88;;
21927;SDS011;11128;51.096;17.190;2023-11-21T10:13:30;11.65;;;5.35;;
21927;SDS011;11128;51.096;17.190;2023-11-21T10:18:33;9.27;;;4.88;;
21927;SDS011;11128;51.096;17.190;2023-11-21T10:23:36;12.52;;;4.72;;
21927;SDS011;11128;51.096;17.190;2023-11-21T10:28:37;20.38;;;8.82;;
21927;SDS011;11128;51.096;17.190;2023-11-21T10:33:39;28.73;;;12.43;;
21927;SDS011;11128;51.096;17.190;2023-11-21T10:38:42;33.47;;;14.15;;
21927;SDS011;11128;51.096;17.190;2023-11-21T10:43:45;30.90;;;14.18;;
21927;SDS011;11128;51.096;17.190;2023-11-21T10:48:51;27.50;;;12.85;;
21927;SDS011;11128;51.096;17.190;2023-11-21T10:53:57;31.83;;;14.57;;
21927;SDS011;11128;51.096;17.190;2023-11-21T10:59:01;29.92;;;13.25;;
21927;SDS011;11128;51.096;17.190;2023-11-21T11:04:02;33.00;;;13.38;;
21927;SDS011;11128;51.096;17.190;2023-11-21T11:09:13;24.73;;;12.35;;
21927;SDS011;11128;51.096;17.190;2023-11-21T11:14:15;29.00;;;12.68;;
21927;SDS011;11128;51.096;17.190;2023-11-21T11:19:17;28.20;;;13.57;;
21927;SDS011;11128;51.096;17.190;2023-11-21T11:29:43;32.58;;;14.27;;
21927;SDS011;11128;51.096;17.190;2023-11-21T11:34:49;33.40;;;14.77;;
21927;SDS011;11128;51.096;17.190;2023-11-21T11:39:56;31.45;;;14.15;;
21927;SDS011;11128;51.096;17.190;2023-11-21T11:44:59;36.33;;;14.93;;
21927;SDS011;11128;51.096;17.190;2023-11-21T11:55:24;34.53;;;16.38;;
21927;SDS011;11128;51.096;17.190;2023-11-21T12:05:27;44.35;;;16.27;;
21927;SDS011;11128;51.096;17.190;2023-11-21T12:10:36;39.38;;;15.95;;
21927;SDS011;11128;51.096;17.190;2023-11-21T12:15:39;39.38;;;15.20;;
21927;SDS011;11128;51.096;17.190;2023-11-21T12:20:42;33.75;;;14.02;;
21927;SDS011;11128;51.096;17.190;2023-11-21T12:25:47;31.60;;;13.75;;
21927;SDS011;11128;51.096;17.190;2023-11-21T12:30:49;25.77;;;12.95;;
21927;SDS011;11128;51.096;17.190;2023-11-21T12:35:50;27.45;;;11.27;;
21927;SDS011;11128;51.096;17.190;2023-11-21T12:40:54;27.55;;;11.73;;
21927;SDS011;11128;51.096;17.190;2023-11-21T12:46:08;27.25;;;11.63;;
21927;SDS011;11128;51.096;17.190;2023-11-21T12:51:10;26.85;;;11.50;;
21927;SDS011;11128;51.096;17.190;2023-11-21T12:56:12;22.80;;;11.10;;
21927;SDS011;11128;51.096;17.190;2023-11-21T13:01:14;25.17;;;9.95;;
21927;SDS011;11128;51.096;17.190;2023-11-21T13:06:21;18.45;;;9.15;;
21927;SDS011;11128;51.096;17.190;2023-11-21T13:11:26;19.85;;;8.35;;
21927;SDS011;11128;51.096;17.190;2023-11-21T13:16:29;14.20;;;6.95;;
21927;SDS011;11128;51.096;17.190;2023-11-21T13:21:32;15.23;;;7.90;;
21927;SDS011;11128;51.096;17.190;2023-11-21T13:26:34;15.60;;;7.68;;
21927;SDS011;11128;51.096;17.190;2023-11-21T13:31:36;14.18;;;7.85;;
21927;SDS011;11128;51.096;17.190;2023-11-21T13:36:37;15.88;;;8.27;;
21927;SDS011;11128;51.096;17.190;2023-11-21T13:41:39;19.17;;;10.13;;
21927;SDS011;11128;51.096;17.190;2023-11-21T13:46:42;20.35;;;9.95;;
21927;SDS011;11128;51.096;17.190;2023-11-21T13:51:43;14.55;;;8.52;;
21927;SDS011;11128;51.096;17.190;2023-11-21T13:56:46;17.17;;;8.25;;
21927;SDS011;11128;51.096;17.190;2023-11-21T14:01:49;14.48;;;8.32;;
21927;SDS011;11128;51.096;17.190;2023-11-21T14:06:54;37.97;;;13.93;;
21927;SDS011;11128;51.096;17.190;2023-11-21T14:11:56;15.70;;;8.57;;
21927;SDS011;11128;51.096;17.190;2023-11-21T14:16:58;18.45;;;9.73;;
21927;SDS011;11128;51.096;17.190;2023-11-21T14:21:59;17.35;;;9.35;;
21927;SDS011;11128;51.096;17.190;2023-11-21T14:27:02;16.95;;;9.52;;
21927;SDS011;11128;51.096;17.190;2023-11-21T14:32:04;21.88;;;10.27;;
21927;SDS011;11128;51.096;17.190;2023-11-21T14:37:06;17.15;;;8.98;;
21927;SDS011;11128;51.096;17.190;2023-11-21T14:42:08;19.17;;;10.30;;
21927;SDS011;11128;51.096;17.190;2023-11-21T14:47:10;13.98;;;8.32;;
21927;SDS011;11128;51.096;17.190;2023-11-21T14:52:17;14.70;;;7.80;;
21927;SDS011;11128;51.096;17.190;2023-11-21T14:57:33;12.10;;;7.38;;
21927;SDS011;11128;51.096;17.190;2023-11-21T15:02:34;10.30;;;6.63;;
21927;SDS011;11128;51.096;17.190;2023-11-21T15:07:51;17.50;;;8.30;;
21927;SDS011;11128;51.096;17.190;2023-11-21T15:12:56;16.45;;;7.47;;
21927;SDS011;11128;51.096;17.190;2023-11-21T15:17:58;14.40;;;7.65;;
21927;SDS011;11128;51.096;17.190;2023-11-21T15:23:00;13.85;;;7.55;;
21927;SDS011;11128;51.096;17.190;2023-11-21T15:28:02;13.45;;;7.78;;
21927;SDS011;11128;51.096;17.190;2023-11-21T15:33:06;18.23;;;9.20;;
21927;SDS011;11128;51.096;17.190;2023-11-21T15:38:08;17.58;;;9.10;;
21927;SDS011;11128;51.096;17.190;2023-11-21T15:43:10;14.85;;;8.63;;
21927;SDS011;11128;51.096;17.190;2023-11-21T15:48:12;16.15;;;8.77;;
21927;SDS011;11128;51.096;17.190;2023-11-21T15:53:14;15.82;;;8.40;;
21927;SDS011;11128;51.096;17.190;2023-11-21T15:58:16;15.77;;;8.65;;
21927;SDS011;11128;51.096;17.190;2023-11-21T16:03:17;17.83;;;9.15;;
21927;SDS011;11128;51.096;17.190;2023-11-21T16:08:18;16.17;;;9.15;;
21927;SDS011;11128;51.096;17.190;2023-11-21T16:13:21;20.92;;;10.38;;
21927;SDS011;11128;51.096;17.190;2023-11-21T16:18:22;17.75;;;9.13;;
21927;SDS011;11128;51.096;17.190;2023-11-21T16:23:24;16.35;;;7.97;;
21927;SDS011;11128;51.096;17.190;2023-11-21T16:28:25;13.43;;;6.80;;
21927;SDS011;11128;51.096;17.190;2023-11-21T16:33:27;12.63;;;7.38;;
21927;SDS011;11128;51.096;17.190;2023-11-21T16:38:29;14.05;;;6.95;;
21927;SDS011;11128;51.096;17.190;2023-11-21T16:43:30;12.23;;;6.80;;
21927;SDS011;11128;51.096;17.190;2023-11-21T16:48:33;14.02;;;7.82;;
21927;SDS011;11128;51.096;17.190;2023-11-21T16:53:34;17.10;;;8.07;;
21927;SDS011;11128;51.096;17.190;2023-11-21T16:58:36;15.77;;;7.95;;
21927;SDS011;11128;51.096;17.190;2023-11-21T17:03:37;16.52;;;8.73;;
21927;SDS011;11128;51.096;17.190;2023-11-21T17:08:39;18.27;;;9.13;;
21927;SDS011;11128;51.096;17.190;2023-11-21T17:13:41;22.45;;;11.77;;
21927;SDS011;11128;51.096;17.190;2023-11-21T17:18:42;20.65;;;10.65;;
21927;SDS011;11128;51.096;17.190;2023-11-21T17:23:43;21.67;;;11.18;;
21927;SDS011;11128;51.096;17.190;2023-11-21T17:28:45;23.13;;;11.63;;
21927;SDS011;11128;51.096;17.190;2023-11-21T17:33:48;26.08;;;12.55;;
21927;SDS011;11128;51.096;17.190;2023-11-21T17:38:49;20.13;;;10.55;;
21927;SDS011;11128;51.096;17.190;2023-11-21T17:43:51;24.45;;;11.57;;
21927;SDS011;11128;51.096;17.190;2023-11-21T17:48:54;23.10;;;11.68;;
21927;SDS011;11128;51.096;17.190;2023-11-21T17:53:56;21.20;;;10.82;;
21927;SDS011;11128;51.096;17.190;2023-11-21T17:59:02;24.10;;;11.15;;
21927;SDS011;11128;51.096;17.190;2023-11-21T18:04:05;24.33;;;11.98;;
21927;SDS011;11128;51.096;17.190;2023-11-21T18:09:07;24.95;;;11.35;;
21927;SDS011;11128;51.096;17.190;2023-11-21T18:14:14;25.65;;;12.32;;
21927;SDS011;11128;51.096;17.190;2023-11-21T18:19:16;24.25;;;12.68;;
21927;SDS011;11128;51.096;17.190;2023-11-21T18:24:17;26.05;;;11.38;;
21927;SDS011;11128;51.096;17.190;2023-11-21T18:29:19;22.48;;;10.90;;
21927;SDS011;11128;51.096;17.190;2023-11-21T18:34:20;22.35;;;10.35;;
21927;SDS011;11128;51.096;17.190;2023-11-21T18:39:22;24.00;;;11.07;;
21927;SDS011;11128;51.096;17.190;2023-11-21T18:44:23;22.80;;;10.70;;
21927;SDS011;11128;51.096;17.190;2023-11-21T18:49:24;24.63;;;11.65;;
21927;SDS011;11128;51.096;17.190;2023-11-21T18:54:26;26.75;;;12.55;;
21927;SDS011;11128;51.096;17.190;2023-11-21T18:59:28;27.13;;;12.65;;
21927;SDS011;11128;51.096;17.190;2023-11-21T19:04:30;29.48;;;12.85;;
21927;SDS011;11128;51.096;17.190;2023-11-21T19:09:32;25.02;;;13.07;;
21927;SDS011;11128;51.096;17.190;2023-11-21T19:14:37;27.95;;;13.07;;
21927;SDS011;11128;51.096;17.190;2023-11-21T19:19:38;30.88;;;13.45;;
21927;SDS011;11128;51.096;17.190;2023-11-21T19:24:40;29.80;;;14.13;;
21927;SDS011;11128;51.096;17.190;2023-11-21T19:29:41;28.92;;;14.02;;
21927;SDS011;11128;51.096;17.190;2023-11-21T19:34:43;30.20;;;14.25;;
21927;SDS011;11128;51.096;17.190;2023-11-21T19:39:49;30.35;;;14.52;;
21927;SDS011;11128;51.096;17.190;2023-11-21T19:44:52;37.65;;;14.82;;
21927;SDS011;11128;51.096;17.190;2023-11-21T19:49:53;36.28;;;17.15;;
21927;SDS011;11128;51.096;17.190;2023-11-21T19:54:55;32.58;;;15.63;;
21927;SDS011;11128;51.096;17.190;2023-11-21T19:59:57;34.78;;;16.48;;
21927;SDS011;11128;51.096;17.190;2023-11-21T20:04:58;33.97;;;16.27;;
21927;SDS011;11128;51.096;17.190;2023-11-21T20:10:00;37.30;;;17.33;;
21927;SDS011;11128;51.096;17.190;2023-11-21T20:15:02;29.58;;;15.13;;
21927;SDS011;11128;51.096;17.190;2023-11-21T20:20:05;35.83;;;15.90;;
21927;SDS011;11128;51.096;17.190;2023-11-21T20:25:07;30.27;;;15.30;;
21927;SDS011;11128;51.096;17.190;2023-11-21T20:30:09;28.83;;;14.75;;
21927;SDS011;11128;51.096;17.190;2023-11-21T20:35:11;60.55;;;26.10;;
21927;SDS011;11128;51.096;17.190;2023-11-21T20:40:13;36.80;;;19.50;;
21927;SDS011;11128;51.096;17.190;2023-11-21T20:45:15;33.65;;;15.50;;
21927;SDS011;11128;51.096;17.190;2023-11-21T20:50:16;32.17;;;14.82;;
21927;SDS011;11128;51.096;17.190;2023-11-21T20:55:22;33.38;;;15.80;;
21927;SDS011;11128;51.096;17.190;2023-11-21T21:00:23;35.45;;;16.63;;
21927;SDS011;11128;51.096;17.190;2023-11-21T21:05:26;36.15;;;16.77;;
21927;SDS011;11128;51.096;17.190;2023-11-21T21:10:28;41.53;;;18.00;;
21927;SDS011;11128;51.096;17.190;2023-11-21T21:15:30;39.03;;;18.80;;
21927;SDS011;11128;51.096;17.190;2023-11-21T21:20:31;40.75;;;18.05;;
21927;SDS011;11128;51.096;17.190;2023-11-21T21:25:33;33.85;;;16.67;;
21927;SDS011;11128;51.096;17.190;2023-11-21T21:30:34;31.60;;;15.95;;
21927;SDS011;11128;51.096;17.190;2023-11-21T21:35:36;33.00;;;14.35;;
21927;SDS011;11128;51.096;17.190;2023-11-21T21:40:37;38.92;;;16.42;;
21927;SDS011;11128;51.096;17.190;2023-11-21T21:45:39;37.35;;;18.58;;
21927;SDS011;11128;51.096;17.190;2023-11-21T21:50:42;42.72;;;17.80;;
21927;SDS011;11128;51.096;17.190;2023-11-21T21:55:43;37.58;;;16.25;;
21927;SDS011;11128;51.096;17.190;2023-11-21T22:00:45;35.05;;;14.80;;
21927;SDS011;11128;51.096;17.190;2023-11-21T22:05:47;41.33;;;16.55;;
21927;SDS011;11128;51.096;17.190;2023-11-21T22:10:49;35.40;;;16.30;;
21927;SDS011;11128;51.096;17.190;2023-11-21T22:15:50;31.20;;;13.75;;
21927;SDS011;11128;51.096;17.190;2023-11-21T22:20:51;38.80;;;17.63;;
21927;SDS011;11128;51.096;17.190;2023-11-21T22:25:53;47.35;;;19.00;;
21927;SDS011;11128;51.096;17.190;2023-11-21T22:30:54;40.75;;;18.50;;
21927;SDS011;11128;51.096;17.190;2023-11-21T22:35:55;41.13;;;17.88;;
21927;SDS011;11128;51.096;17.190;2023-11-21T22:40:57;37.55;;;17.30;;
21927;SDS011;11128;51.096;17.190;2023-11-21T22:45:58;39.42;;;17.58;;
21927;SDS011;11128;51.096;17.190;2023-11-21T22:51:03;44.75;;;18.30;;
21927;SDS011;11128;51.096;17.190;2023-11-21T22:56:04;45.42;;;19.20;;
21927;SDS011;11128;51.096;17.190;2023-11-21T23:01:09;39.13;;;17.35;;
21927;SDS011;11128;51.096;17.190;2023-11-21T23:06:15;38.35;;;16.88;;
21927;SDS011;11128;51.096;17.190;2023-11-21T23:11:21;36.90;;;16.55;;
21927;SDS011;11128;51.096;17.190;2023-11-21T23:16:22;40.83;;;17.50;;
21927;SDS011;11128;51.096;17.190;2023-11-21T23:21:24;37.20;;;17.02;;
21927;SDS011;11128;51.096;17.190;2023-11-21T23:26:29;45.22;;;17.23;;
21927;SDS011;11128;51.096;17.190;2023-11-21T23:31:30;39.55;;;17.73;;
21927;SDS011;11128;51.096;17.190;2023-11-21T23:36:32;41.15;;;17.83;;
21927;SDS011;11128;51.096;17.190;2023-11-21T23:41:36;40.58;;;18.35;;
21927;SDS011;11128;51.096;17.190;2023-11-21T23:46:38;47.47;;;19.15;;
21927;SDS011;11128;51.096;17.190;2023-11-21T23:51:40;42.22;;;19.00;;
21927;SDS011;11128;51.096;17.190;2023-11-21T23:56:41;39.67;;;16.92;;
